Data for 01/06/2013

Time Sea-Level Adjusted Pressure Absolute Pressure Temperature Relative Humidity Dew Point   
(mb) (inHg) (mb) (inHg) (C) (F) (%) (C) (F)
00:05 1020 30.12 849 25.07 -5.4 22.2 57 -12.6 9.3
00:10 1020 30.12 849 25.07 -5.3 22.4 58 -12.3 9.8
00:15 1020 30.12 849 25.07 -5.4 22.2 56 -12.8 9
00:20 1020 30.12 849 25.07 -5.5 22.2 59 -12.4 9.8
00:25 1020 30.12 849 25.07 -5.7 21.8 59 -12.5 9.5
00:30 1020 30.12 849 25.07 -5.9 21.3 60 -12.5 9.5
00:35 1020 30.12 849 25.07 -6.1 21.1 61 -12.5 9.5
00:40 1020 30.12 849 25.07 -6.1 21 60 -12.6 9.4
00:45 1020 30.12 849 25.07 -6.4 20.6 61 -12.8 9
00:50 1020 30.12 849 25.07 -6.8 19.8 62 -12.9 8.8
00:55 1020 30.12 849 25.07 -7 19.5 62 -13 8.6
01:00 1020 30.12 849 25.07 -7 19.5 62 -13 8.6
01:05 1020 30.12 849 25.07 -6.9 19.5 63 -12.8 9
01:10 1020 30.12 849 25.07 -7 19.4 63 -12.8 8.9
01:15 1019 30.09 849 25.07 -6.9 19.5 64 -12.7 9.1
01:20 1019 30.09 849 25.07 -7 19.4 63 -12.8 8.9
01:25 1019 30.09 849 25.07 -6.9 19.6 62 -12.9 8.8
01:30 1019 30.09 849 25.07 -7 19.4 64 -12.7 9.1
01:35 1019 30.09 848 25.04 -7 19.3 65 -12.6 9.4
01:40 1019 30.09 848 25.04 -6.9 19.5 63 -12.8 9
01:45 1019 30.09 848 25.04 -7.6 18.3 66 -12.9 8.8
01:50 1019 30.09 848 25.04 -7.6 18.4 67 -12.6 9.3
01:55 1019 30.09 848 25.04 -7.2 19 67 -12.2 10
02:00 1019 30.09 848 25.04 -7.1 19.2 66 -12.4 9.7
02:05 1019 30.09 848 25.04 -6.9 19.5 65 -12.4 9.7
02:10 1019 30.09 848 25.04 -7.2 19 67 -12.3 9.9
02:15 1019 30.09 848 25.04 -7.1 19.3 65 -12.6 9.3
02:20 1019 30.09 848 25.04 -7 19.5 64 -12.7 9.2
02:25 1019 30.09 848 25.04 -7.1 19.3 64 -12.8 9
02:30 1019 30.09 848 25.04 -7.3 18.9 65 -12.8 9
02:35 1019 30.09 848 25.04 -7.3 18.8 64 -13 8.7
02:40 1019 30.09 848 25.04 -7.4 18.7 65 -12.9 8.8
02:45 1019 30.09 848 25.04 -7.3 18.9 66 -12.7 9.2
02:50 1019 30.09 848 25.04 -7 19.5 63 -12.9 8.8
02:55 1019 30.09 848 25.04 -7.4 18.7 66 -12.7 9.2
03:00 1019 30.09 848 25.04 -7.7 18.2 66 -13 8.6
03:05 1019 30.09 848 25.04 -8.1 17.3 69 -12.9 8.7
03:10 1019 30.09 848 25.04 -7.8 17.9 67 -12.9 8.8
03:15 1019 30.09 848 25.04 -7.7 18.1 68 -12.6 9.3
03:20 1019 30.09 848 25.04 -7.9 17.7 68 -12.9 8.7
03:25 1019 30.09 848 25.04 -8 17.6 68 -12.8 8.9
03:30 1019 30.09 848 25.04 -8.5 16.6 70 -13.1 8.3
03:35 1019 30.09 848 25.04 -8.8 16.1 70 -13.4 7.9
03:40 1019 30.09 848 25.04 -8.7 16.3 70 -13.3 8.1
03:45 1019 30.09 848 25.04 -8.6 16.5 68 -13.5 7.8
03:50 1019 30.09 848 25.04 -8.9 15.9 70 -13.5 7.8
03:55 1019 30.09 848 25.04 -9 15.8 70 -13.5 7.6
04:00 1019 30.09 848 25.04 -8.4 16.9 68 -13.3 8.1
04:05 1019 30.09 848 25.04 -7.4 18.8 64 -13 8.7
04:10 1018 30.06 848 25.04 -7.4 18.7 65 -12.9 8.7
04:15 1018 30.06 848 25.04 -7.6 18.4 64 -13.2 8.2
04:20 1018 30.06 848 25.04 -7.5 18.4 63 -13.4 7.8
04:25 1018 30.06 848 25.04 -7.4 18.8 64 -13.1 8.4
04:30 1018 30.06 847 25.01 -7.6 18.3 64 -13.2 8.2
04:35 1018 30.06 847 25.01 -7.7 18.2 65 -13.2 8.3
04:40 1018 30.06 847 25.01 -7.3 18.9 63 -13.1 8.4
04:45 1018 30.06 847 25.01 -6.6 20.1 61 -13 8.6
04:50 1018 30.06 847 25.01 -6.4 20.5 60 -12.9 8.7
04:55 1018 30.06 847 25.01 -6.6 20.1 62 -12.7 9.2
05:00 1018 30.06 847 25.01 -6.6 20.1 62 -12.7 9.1
05:05 1018 30.06 847 25.01 -6.6 20.2 60 -13.1 8.5
05:10 1018 30.06 848 25.04 -6.8 19.8 62 -12.9 8.8
05:15 1018 30.06 848 25.04 -6.9 19.6 61 -13.2 8.2
05:20 1018 30.06 848 25.04 -6.5 20.2 62 -12.7 9.1
05:25 1018 30.06 847 25.01 -7.1 19.1 64 -12.8 9
05:30 1018 30.06 847 25.01 -8 17.6 68 -12.9 8.8
05:35 1018 30.06 847 25.01 -8.5 16.8 69 -13.2 8.3
05:40 1018 30.06 847 25.01 -8.4 16.9 69 -13.1 8.5
05:45 1018 30.06 847 25.01 -7.9 17.8 67 -13 8.6
05:50 1018 30.06 847 25.01 -7.6 18.3 66 -12.9 8.8
05:55 1018 30.06 847 25.01 -7.4 18.6 65 -12.9 8.8
06:00 1018 30.06 847 25.01 -7.1 19.3 65 -12.5 9.4
06:05 1018 30.06 847 25.01 -7.1 19.2 65 -12.7 9.2
06:10 1018 30.06 847 25.01 -7.4 18.7 66 -12.8 9
06:15 1018 30.06 847 25.01 -7.6 18.3 67 -12.8 9
06:20 1018 30.06 847 25.01 -7.4 18.7 65 -12.9 8.8
06:25 1018 30.06 847 25.01 -7.6 18.3 67 -12.7 9.1
06:30 1018 30.06 847 25.01 -7.6 18.3 67 -12.8 9
06:35 1017 30.03 847 25.01 -7.6 18.3 67 -12.7 9.1
06:40 1018 30.06 847 25.01 -7.8 18 68 -12.6 9.2
06:45 1018 30.06 847 25.01 -7.4 18.6 67 -12.6 9.3
06:50 1017 30.03 847 25.01 -7.6 18.3 67 -12.7 9.2
06:55 1017 30.03 847 25.01 -6.9 19.6 62 -12.9 8.8
07:00 1017 30.03 847 25.01 -6.4 20.5 62 -12.5 9.6
07:05 1017 30.03 846 24.98 -6.4 20.4 62 -12.5 9.4
07:10 1017 30.03 846 24.98 -6.7 20 64 -12.5 9.5
07:15 1017 30.03 846 24.98 -7.2 19 66 -12.6 9.3
07:20 1017 30.03 846 24.98 -7.5 18.5 66 -12.9 8.8
07:25 1017 30.03 846 24.98 -6.9 19.6 62 -12.9 8.7
07:30 1017 30.03 846 24.98 -6.4 20.4 61 -12.8 8.9
07:35 1017 30.03 846 24.98 -6.2 20.9 61 -12.6 9.3
07:40 1017 30.03 846 24.98 -6.3 20.7 61 -12.7 9.1
07:45 1017 30.03 846 24.98 -5.9 21.4 59 -12.7 9.2
07:50 1017 30.03 846 24.98 -5.5 22 57 -12.7 9.1
07:55 1017 30.03 846 24.98 -5.2 22.6 56 -12.6 9.3
08:00 1017 30.03 846 24.98 -5 22.9 57 -12.4 9.7
08:05 1016 30 846 24.98 -5 23 56 -12.4 9.6
08:10 1016 30 846 24.98 -4.9 23.2 56 -12.4 9.7
08:15 1016 30 845 24.95 -4.8 23.3 56 -12.3 9.8
08:20 1016 30 845 24.95 -5 23.1 56 -12.3 9.8
08:25 1016 30 845 24.95 -5.1 22.9 57 -12.3 9.9
08:30 1016 30 845 24.95 -5.1 22.9 57 -12.4 9.7
08:35 1016 30 845 24.95 -4.9 23.1 56 -12.4 9.8
08:40 1016 30 845 24.95 -4.7 23.5 55 -12.5 9.5
08:45 1016 30 845 24.95 -4.3 24.3 53 -12.6 9.3
08:50 1016 30 845 24.95 -4 24.8 52 -12.6 9.4
08:55 1016 30 845 24.95 -3.7 25.3 50 -12.7 9.1
09:00 1016 30 845 24.95 -3.4 25.8 48 -12.8 8.9
09:05 1016 30 845 24.95 -3.1 26.4 46 -13.1 8.3
09:10 1016 30 845 24.95 -2.7 27.2 46 -12.9 8.8
09:15 1016 30 845 24.95 -2.5 27.5 48 -12 10.5
09:20 1016 30 845 24.95 -3.1 26.4 50 -12.1 10.2
09:25 1016 30 845 24.95 -3.4 25.8 51 -12.1 10.1
09:30 1016 30 845 24.95 -3.6 25.4 54 -11.7 11
09:35 1016 30 845 24.95 -4.2 24.4 57 -11.6 11.1
09:40 1016 30 846 24.98 -4.7 23.5 59 -11.6 11.1
09:45 1016 30 846 24.98 -4.9 23.1 60 -11.6 11.2
09:50 1017 30.03 846 24.98 -5.1 22.8 60 -11.8 10.8
09:55 1017 30.03 846 24.98 -5.2 22.7 59 -11.9 10.6
10:00 1017 30.03 846 24.98 -5 22.9 60 -11.6 11.1
10:05 1017 30.03 846 24.98 -5 23 61 -11.5 11.4
10:10 1017 30.03 846 24.98 -5 23 62 -11.3 11.7
10:15 1017 30.03 846 24.98 -4.8 23.3 61 -11.3 11.6
10:20 1017 30.03 846 24.98 -4.7 23.6 61 -11.2 11.9
10:25 1017 30.03 846 24.98 -4.7 23.6 61 -11.2 11.9
10:30 1017 30.03 846 24.98 -4.7 23.6 61 -11 12.1
10:35 1017 30.03 846 24.98 -4.6 23.7 61 -11 12.2
10:40 1017 30.03 846 24.98 -4.6 23.7 63 -10.7 12.7
10:45 1017 30.03 846 24.98 -4.6 23.6 62 -10.9 12.5
10:50 1017 30.03 846 24.98 -4.7 23.6 62 -10.9 12.3
10:55 1017 30.03 846 24.98 -4.6 23.7 63 -10.7 12.7
11:00 1017 30.03 846 24.98 -4.7 23.6 64 -10.5 13.1
11:05 1017 30.03 846 24.98 -4.6 23.6 63 -10.7 12.7
11:10 1017 30.03 846 24.98 -4.4 24 60 -11.2 11.9
11:15 1017 30.03 846 24.98 -4.3 24.3 60 -10.9 12.3
11:20 1017 30.03 846 24.98 -4.1 24.7 60 -10.7 12.8
11:25 1017 30.03 846 24.98 -3.8 25.1 60 -10.5 13.1
11:30 1017 30.03 846 24.98 -3.4 25.9 58 -10.6 12.9
11:35 1017 30.03 846 24.98 -2.9 26.9 57 -10.3 13.5
11:40 1017 30.03 846 24.98 -2.8 27 55 -10.5 13
11:45 1017 30.03 846 24.98 -2.4 27.7 55 -10.3 13.4
11:50 1017 30.03 846 24.98 -2.3 27.8 57 -9.7 14.6
11:55 1017 30.03 846 24.98 -2.6 27.3 57 -9.9 14.1
12:00 1017 30.03 846 24.98 -2.4 27.6 57 -9.8 14.4
12:05 1017 30.03 846 24.98 -2.1 28.3 57 -9.6 14.8
12:10 1017 30.03 846 24.98 -1.9 28.5 55 -9.9 14.1
12:15 1017 30.03 846 24.98 -1.9 28.5 52 -10.5 13
12:20 1017 30.03 846 24.98 -1.5 29.4 48 -11.2 11.9
12:25 1016 30 846 24.98 -1 30.3 48 -10.7 12.7
12:30 1016 30 846 24.98 -0.7 30.7 46 -10.9 12.5
12:35 1016 30 846 24.98 -0.5 31.1 46 -10.7 12.7
12:40 1016 30 846 24.98 0 32.1 45 -10.5 13.1
12:45 1016 30 845 24.95 0.4 32.7 45 -10.3 13.5
12:50 1016 30 845 24.95 0.7 33.3 43 -10.5 13.1
12:55 1016 30 845 24.95 1 33.7 42 -10.7 12.8
13:00 1016 30 845 24.95 1.1 33.9 43 -10.2 13.6
13:05 1016 30 845 24.95 1.2 34.2 43 -10.1 13.9
13:10 1016 30 845 24.95 1.4 34.5 42 -10.1 13.8
13:15 1016 30 845 24.95 1.4 34.5 43 -10 14
13:20 1016 30 845 24.95 1.3 34.4 43 -10 14
13:25 1016 30 845 24.95 1.3 34.4 42 -10.2 13.6
13:30 1015 29.97 845 24.95 1.3 34.4 43 -9.8 14.3
13:35 1015 29.97 845 24.95 1.4 34.5 43 -9.8 14.4
13:40 1015 29.97 844 24.92 1.2 34.2 44 -9.7 14.6
13:45 1015 29.97 844 24.92 1.2 34.1 45 -9.6 14.8
13:50 1015 29.97 844 24.92 0.7 33.2 47 -9.5 14.9
13:55 1015 29.97 844 24.92 0.2 32.4 46 -10 13.9
14:00 1015 29.97 844 24.92 0.2 32.3 47 -9.8 14.3
14:05 1015 29.97 844 24.92 0.4 32.7 48 -9.5 14.8
14:10 1015 29.97 844 24.92 0.3 32.6 49 -9.1 15.5
14:15 1015 29.97 844 24.92 0.2 32.3 49 -9.3 15.3
14:20 1015 29.97 844 24.92 0.2 32.4 47 -9.9 14.3
14:25 1015 29.97 844 24.92 0.4 32.7 48 -9.3 15.3
14:30 1015 29.97 844 24.92 0.6 33.1 49 -9 15.8
14:35 1015 29.97 844 24.92 0.7 33.3 49 -8.7 16.3
14:40 1015 29.97 844 24.92 0.9 33.7 47 -9.1 15.6
14:45 1015 29.97 844 24.92 1 33.8 46 -9.3 15.3
14:50 1015 29.97 844 24.92 0.7 33.2 48 -9.2 15.4
14:55 1015 29.97 844 24.92 0.5 32.9 47 -9.4 15
15:00 1015 29.97 844 24.92 0.5 33 47 -9.6 14.8
15:05 1014 29.94 844 24.92 0.7 33.3 48 -9 15.8
15:10 1014 29.94 844 24.92 0.9 33.5 50 -8.6 16.6
15:15 1014 29.94 844 24.92 0.9 33.6 48 -8.9 15.9
15:20 1015 29.97 844 24.92 1 33.8 47 -9.2 15.5
15:25 1015 29.97 844 24.92 1.1 34 46 -9.3 15.3
15:30 1014 29.94 844 24.92 1.1 34.1 46 -9.3 15.2
15:35 1014 29.94 844 24.92 1.2 34.2 45 -9.4 15.1
15:40 1014 29.94 844 24.92 1.4 34.6 45 -9.3 15.3
15:45 1014 29.94 844 24.92 1.5 34.7 45 -9.3 15.3
15:50 1014 29.94 844 24.92 1.3 34.4 47 -8.9 16
15:55 1014 29.94 844 24.92 1.3 34.4 44 -9.5 14.9
16:00 1014 29.94 844 24.92 1.4 34.5 45 -9.2 15.4
16:05 1014 29.94 844 24.92 1.3 34.4 46 -9.2 15.4
16:10 1014 29.94 844 24.92 1.3 34.3 46 -9.1 15.6
16:15 1014 29.94 844 24.92 1.4 34.6 44 -9.5 14.8
16:20 1015 29.97 844 24.92 1.4 34.5 46 -9 15.8
16:25 1015 29.97 844 24.92 1.5 34.7 47 -8.7 16.3
16:30 1015 29.97 844 24.92 1.6 34.8 46 -8.8 16.2
16:35 1015 29.97 844 24.92 1.5 34.8 47 -8.5 16.6
16:40 1015 29.97 844 24.92 1.6 34.8 48 -8.3 17.1
16:45 1015 29.97 844 24.92 1.6 34.8 50 -7.8 18
16:50 1015 29.97 844 24.92 1.3 34.3 52 -7.6 18.3
16:55 1015 29.97 844 24.92 0.9 33.7 54 -7.3 18.9
17:00 1015 29.97 844 24.92 0.9 33.5 54 -7.5 18.5
17:05 1015 29.97 844 24.92 0.9 33.6 54 -7.3 18.8
17:10 1015 29.97 844 24.92 0.9 33.7 53 -7.6 18.4
17:15 1015 29.97 844 24.92 0.8 33.5 54 -7.4 18.7
17:20 1015 29.97 844 24.92 0.7 33.3 54 -7.5 18.6
17:25 1015 29.97 844 24.92 0.7 33.2 55 -7.4 18.8
17:30 1015 29.97 844 24.92 0.5 32.8 54 -7.8 18
17:35 1015 29.97 844 24.92 0.5 32.9 54 -7.7 18.1
17:40 1015 29.97 844 24.92 0.6 33 54 -7.7 18.1
17:45 1015 29.97 844 24.92 0.7 33.2 53 -7.9 17.9
17:50 1015 29.97 844 24.92 0.8 33.4 53 -7.7 18.1
17:55 1015 29.97 844 24.92 0.6 33.1 54 -7.5 18.4
18:00 1015 29.97 844 24.92 0.5 33 55 -7.6 18.4
18:05 1015 29.97 844 24.92 0.5 32.9 56 -7.4 18.7
18:10 1015 29.97 844 24.92 0.3 32.6 57 -7.2 19
18:15 1015 29.97 844 24.92 0.2 32.4 58 -7.2 19.1
18:20 1015 29.97 844 24.92 0.1 32.2 59 -7.1 19.3
18:25 1015 29.97 844 24.92 -0.1 31.9 59 -7.2 19.1
18:30 1015 29.97 844 24.92 -0.3 31.4 60 -7.2 19
18:35 1015 29.97 844 24.92 -0.5 31 61 -7.2 19
18:40 1015 29.97 844 24.92 -0.6 30.9 61 -7.2 19
18:45 1015 29.97 844 24.92 -0.6 31 61 -7.2 19
18:50 1015 29.97 844 24.92 -0.7 30.7 61 -7.2 19
18:55 1015 29.97 844 24.92 -1 30.2 61 -7.5 18.4
19:00 1015 29.97 844 24.92 -0.9 30.3 60 -7.7 18.2
19:05 1015 29.97 844 24.92 -0.9 30.3 61 -7.4 18.6
19:10 1015 29.97 844 24.92 -1.1 29.9 62 -7.5 18.5
19:15 1015 29.97 844 24.92 -1 30.2 61 -7.6 18.3
19:20 1015 29.97 844 24.92 -1 30.2 60 -7.7 18.1
19:25 1015 29.97 844 24.92 -1.1 30 62 -7.5 18.5
19:30 1015 29.97 845 24.95 -0.9 30.4 62 -7.3 18.9
19:35 1015 29.97 845 24.95 -0.6 30.8 61 -7.3 18.9
19:40 1015 29.97 845 24.95 -0.7 30.8 62 -7.1 19.3
19:45 1015 29.97 845 24.95 -0.7 30.8 63 -6.9 19.5
19:50 1015 29.97 845 24.95 -0.7 30.7 63 -6.9 19.6
19:55 1015 29.97 845 24.95 -0.6 30.9 63 -6.7 19.9
20:00 1015 29.97 845 24.95 -0.6 31 63 -6.8 19.7
20:05 1015 29.97 845 24.95 -0.8 30.6 64 -6.8 19.8
20:10 1015 29.97 845 24.95 -1 30.3 65 -6.8 19.7
20:15 1015 29.97 845 24.95 -1.1 30 66 -6.7 20
20:20 1016 30 845 24.95 -0.9 30.4 65 -6.6 20.2
20:25 1016 30 845 24.95 -0.8 30.6 67 -6.3 20.7
20:30 1015 29.97 845 24.95 -0.9 30.4 67 -6.3 20.6
20:35 1015 29.97 845 24.95 -1.5 29.4 69 -6.5 20.3
20:40 1016 30 845 24.95 -1.9 28.6 71 -6.5 20.3
20:45 1016 30 845 24.95 -1.7 28.9 70 -6.4 20.4
20:50 1016 30 845 24.95 -1.6 29.1 70 -6.4 20.6
20:55 1016 30 845 24.95 -1.5 29.3 70 -6.2 20.9
21:00 1015 29.97 845 24.95 -1.4 29.5 70 -6.1 21
21:05 1015 29.97 845 24.95 -1.3 29.7 70 -6.1 21
21:10 1015 29.97 845 24.95 -1.3 29.6 70 -6.2 20.9
21:15 1016 30 845 24.95 -1.1 30 68 -6.2 20.8
21:20 1016 30 845 24.95 -0.9 30.3 69 -6 21.3
21:25 1016 30 845 24.95 -0.8 30.6 68 -5.9 21.4
21:30 1015 29.97 845 24.95 -0.7 30.8 67 -6.1 21.1
21:35 1015 29.97 845 24.95 -0.4 31.3 66 -5.9 21.4
21:40 1015 29.97 845 24.95 -0.2 31.7 65 -5.9 21.4
21:45 1015 29.97 845 24.95 -0.2 31.6 66 -5.8 21.6
21:50 1015 29.97 845 24.95 -0.3 31.5 67 -5.7 21.7
21:55 1015 29.97 845 24.95 -0.3 31.4 67 -5.8 21.5
22:00 1015 29.97 845 24.95 -0.4 31.3 66 -5.9 21.3
22:05 1016 30 845 24.95 -0.3 31.5 66 -5.9 21.4
22:10 1016 30 845 24.95 -0.3 31.5 66 -5.9 21.4
22:15 1016 30 845 24.95 -0.1 31.8 65 -5.9 21.4
22:20 1016 30 845 24.95 -0.2 31.6 66 -5.9 21.4
22:25 1016 30 845 24.95 -0.4 31.3 66 -5.9 21.4
22:30 1016 30 845 24.95 -0.5 31.2 66 -6 21.2
22:35 1016 30 845 24.95 -0.5 31.2 65 -6.2 20.9
22:40 1016 30 845 24.95 -1.2 29.8 70 -6.1 21
22:45 1016 30 845 24.95 -1.6 29.2 69 -6.5 20.4
22:50 1016 30 845 24.95 -1.8 28.8 71 -6.4 20.5
22:55 1016 30 845 24.95 -2 28.5 71 -6.6 20.1
23:00 1016 30 845 24.95 -2 28.3 71 -6.6 20
23:05 1016 30 845 24.95 -1.7 28.9 70 -6.5 20.3
23:10 1016 30 845 24.95 -1.8 28.8 70 -6.6 20.2
23:15 1016 30 845 24.95 -1.6 29.2 69 -6.6 20.1
23:20 1016 30 845 24.95 -1.5 29.3 69 -6.6 20.2
23:25 1016 30 845 24.95 -1.6 29.1 69 -6.6 20.1
23:30 1016 30 845 24.95 -1.7 28.9 69 -6.7 20
23:35 1016 30 845 24.95 -1.9 28.6 69 -6.8 19.8
23:40 1016 30 845 24.95 -2.4 27.8 71 -7 19.5
23:45 1016 30 845 24.95 -2.6 27.3 72 -7 19.4
23:50 1016 30 846 24.98 -2.1 28.1 70 -6.9 19.6
23:55 1016 30 846 24.98 -1.9 28.5 69 -6.9 19.6
24:00 1016 30 846 24.98 -1.9 28.5 70 -6.7 19.9